Time;durP1;ratioP1;P1;durP2;ratioP2;P2;SDS_P1;SDS_P2;PMS_P1;PMS_P2;Temp;Humidity;BMP_temperature;BMP_pressure;BME280_temperature;BME280_humidity;BME280_pressure;Samples;Min_cycle;Max_cycle;Signal;HPM_P1;HPM_P2
2023/03/17 00:00:09;;;;;;;3.30;2.43;;;;;;;;;;5073124;28;20666;-56
2023/03/17 00:02:35;;;;;;;3.03;2.43;;;;;;;;;;5073509;28;20188;-57
2023/03/17 00:05:01;;;;;;;2.53;2.33;;;;;;;;;;5073276;28;20516;-56
2023/03/17 00:07:29;;;;;;;3.80;2.37;;;;;;;;;;5073223;28;20438;-57
2023/03/17 00:09:55;;;;;;;2.53;2.30;;;;;;;;;;5073216;28;20503;-56
2023/03/17 00:12:21;;;;;;;3.00;2.17;;;;;;;;;;5072871;28;20477;-56
2023/03/17 00:14:47;;;;;;;3.03;2.27;;;;;;;;;;5073126;28;20664;-57
2023/03/17 00:17:13;;;;;;;2.63;2.43;;;;;;;;;;5072987;28;20199;-56
2023/03/17 00:19:40;;;;;;;4.23;2.50;;;;;;;;;;5073311;28;20573;-57
2023/03/17 00:22:12;;;;;;;2.47;2.10;;;;;;;;;;5072968;28;20434;-56
2023/03/17 00:24:39;;;;;;;2.40;1.93;;;;;;;;;;5072686;28;20437;-57
2023/03/17 00:27:09;;;;;;;2.73;2.07;;;;;;;;;;5070985;28;20204;-56
2023/03/17 00:29:35;;;;;;;2.73;2.20;;;;;;;;;;5071245;28;20429;-57
2023/03/17 00:32:01;;;;;;;3.00;2.57;;;;;;;;;;5072862;28;20478;-56
2023/03/17 00:34:28;;;;;;;3.07;2.37;;;;;;;;;;5072965;28;20199;-56
2023/03/17 00:36:54;;;;;;;4.23;2.37;;;;;;;;;;5072911;28;20805;-57
2023/03/17 00:39:21;;;;;;;2.63;2.30;;;;;;;;;;5072832;28;20207;-55
2023/03/17 00:41:48;;;;;;;2.73;2.30;;;;;;;;;;5072727;28;21003;-56
2023/03/17 00:44:14;;;;;;;3.40;2.30;;;;;;;;;;5072610;28;20473;-57
2023/03/17 00:46:40;;;;;;;3.00;2.50;;;;;;;;;;5072698;28;20527;-55
2023/03/17 00:49:12;;;;;;;2.50;2.30;;;;;;;;;;5072402;28;20472;-56
2023/03/17 00:51:38;;;;;;;3.17;2.23;;;;;;;;;;5072825;28;20218;-57
2023/03/17 00:54:04;;;;;;;2.50;2.30;;;;;;;;;;5072553;28;20200;-57
2023/03/17 00:56:30;;;;;;;2.50;2.20;;;;;;;;;;5072304;28;20932;-58
2023/03/17 00:58:57;;;;;;;2.57;2.37;;;;;;;;;;5072511;28;20805;-58
2023/03/17 01:01:23;;;;;;;2.93;2.50;;;;;;;;;;5072473;28;20442;-58
2023/03/17 01:03:50;;;;;;;2.60;2.40;;;;;;;;;;5072330;28;20436;-58
2023/03/17 01:06:16;;;;;;;3.77;2.80;;;;;;;;;;5072134;28;20209;-58
2023/03/17 01:08:43;;;;;;;2.60;2.03;;;;;;;;;;5072191;28;20959;-58
2023/03/17 01:11:13;;;;;;;2.73;2.53;;;;;;;;;;5071256;28;20438;-58
2023/03/17 01:13:39;;;;;;;3.47;2.43;;;;;;;;;;5072264;28;20473;-58
2023/03/17 01:16:09;;;;;;;2.43;2.23;;;;;;;;;;5072117;28;20460;-58
2023/03/17 01:18:35;;;;;;;2.73;2.50;;;;;;;;;;5072308;28;20446;-58
2023/03/17 01:21:01;;;;;;;2.93;2.57;;;;;;;;;;5072009;28;20200;-58
2023/03/17 01:23:27;;;;;;;3.57;2.40;;;;;;;;;;5071980;28;20291;-58
2023/03/17 01:25:53;;;;;;;3.80;2.50;;;;;;;;;;5072036;28;20454;-58
2023/03/17 01:28:20;;;;;;;4.03;2.63;;;;;;;;;;5071681;28;20571;-57
2023/03/17 01:30:46;;;;;;;3.00;2.57;;;;;;;;;;5071791;28;20274;-58
2023/03/17 01:33:14;;;;;;;3.03;2.67;;;;;;;;;;5071594;28;20483;-57
2023/03/17 01:35:40;;;;;;;2.97;2.77;;;;;;;;;;5071849;28;20450;-58
2023/03/17 01:38:07;;;;;;;5.03;2.97;;;;;;;;;;5071823;28;20437;-58
2023/03/17 01:40:34;;;;;;;3.70;2.97;;;;;;;;;;5071678;28;20434;-58
2023/03/17 01:43:03;;;;;;;4.50;2.70;;;;;;;;;;5071574;28;20446;-58
2023/03/17 01:45:48;;;;;;;2.90;2.43;;;;;;;;;;5071706;28;21000;-58
2023/03/17 01:48:16;;;;;;;2.73;2.53;;;;;;;;;;5071396;28;20425;-58
2023/03/17 01:50:42;;;;;;;3.10;2.60;;;;;;;;;;5071555;28;20430;-58
2023/03/17 01:53:08;;;;;;;3.23;2.93;;;;;;;;;;5071512;28;20535;-58
2023/03/17 01:55:35;;;;;;;4.53;2.90;;;;;;;;;;5071601;28;20198;-58
2023/03/17 01:58:01;;;;;;;3.37;2.90;;;;;;;;;;5071499;28;20442;-58
2023/03/17 02:00:28;;;;;;;4.03;3.10;;;;;;;;;;5071549;28;20261;-58
2023/03/17 02:02:55;;;;;;;3.63;2.73;;;;;;;;;;5071609;28;20204;-58
2023/03/17 02:05:25;;;;;;;3.00;2.70;;;;;;;;;;5071301;28;20440;-58
2023/03/17 02:07:51;;;;;;;3.87;2.77;;;;;;;;;;5071597;28;20448;-58
2023/03/17 02:10:19;;;;;;;3.00;2.50;;;;;;;;;;5071193;28;20801;-58
2023/03/17 02:12:47;;;;;;;3.73;2.50;;;;;;;;;;5071313;28;20470;-58
2023/03/17 02:15:14;;;;;;;5.70;2.70;;;;;;;;;;5071196;28;20203;-58
2023/03/17 02:17:40;;;;;;;4.50;2.90;;;;;;;;;;5071461;28;20520;-58
2023/03/17 02:20:24;;;;;;;3.60;2.60;;;;;;;;;;5071205;28;20510;-58
2023/03/17 02:22:53;;;;;;;4.10;3.00;;;;;;;;;;5073408;28;20429;-58
2023/03/17 02:25:20;;;;;;;5.67;2.50;;;;;;;;;;5075181;28;20454;-58
2023/03/17 02:27:49;;;;;;;3.07;2.70;;;;;;;;;;5075296;28;20219;-58
2023/03/17 02:30:17;;;;;;;3.27;2.90;;;;;;;;;;5075136;28;20829;-58
2023/03/17 02:32:43;;;;;;;2.63;2.43;;;;;;;;;;5075135;28;20477;-59
2023/03/17 02:35:10;;;;;;;2.83;2.43;;;;;;;;;;5075302;28;20430;-59
2023/03/17 02:37:36;;;;;;;3.47;2.47;;;;;;;;;;5075400;28;20469;-58
2023/03/17 02:40:04;;;;;;;3.57;3.00;;;;;;;;;;5074998;28;20863;-58
2023/03/17 02:42:30;;;;;;;2.97;2.67;;;;;;;;;;5075092;28;20315;-58
2023/03/17 02:44:56;;;;;;;4.07;2.83;;;;;;;;;;5074852;28;20552;-58
2023/03/17 02:47:23;;;;;;;3.73;2.80;;;;;;;;;;5075015;28;20594;-58
2023/03/17 02:49:50;;;;;;;3.30;2.70;;;;;;;;;;5075023;28;20880;-57
2023/03/17 02:52:16;;;;;;;3.10;2.63;;;;;;;;;;5074602;28;20620;-57
2023/03/17 02:54:42;;;;;;;3.30;2.60;;;;;;;;;;5074843;28;20471;-58
2023/03/17 02:57:09;;;;;;;4.40;2.93;;;;;;;;;;5074813;28;20268;-58
2023/03/17 02:59:36;;;;;;;4.10;2.70;;;;;;;;;;5074772;28;20203;-58
2023/03/17 03:02:02;;;;;;;3.70;2.80;;;;;;;;;;5074580;28;20483;-58
2023/03/17 03:04:28;;;;;;;2.93;2.73;;;;;;;;;;5074652;28;20438;-58
2023/03/17 03:06:55;;;;;;;3.67;2.77;;;;;;;;;;5074687;28;20199;-58
2023/03/17 03:09:21;;;;;;;4.80;2.80;;;;;;;;;;5074416;28;20433;-58
2023/03/17 03:11:47;;;;;;;3.83;2.83;;;;;;;;;;5074373;28;20441;-58
2023/03/17 03:14:15;;;;;;;3.40;3.10;;;;;;;;;;5074214;28;20524;-58
2023/03/17 03:16:42;;;;;;;3.50;3.10;;;;;;;;;;5074571;28;20607;-58
2023/03/17 03:19:08;;;;;;;3.70;2.90;;;;;;;;;;5074370;28;20519;-58
2023/03/17 03:21:35;;;;;;;3.40;2.93;;;;;;;;;;5074260;28;20491;-58
2023/03/17 03:24:01;;;;;;;4.03;3.40;;;;;;;;;;5074175;28;20936;-58
2023/03/17 03:29:32;;;;;;;4.00;3.07;;;;;;;;;;5074105;28;20278;-58
2023/03/17 03:31:58;;;;;;;3.73;3.33;;;;;;;;;;5073940;28;20434;-57
2023/03/17 03:34:24;;;;;;;3.40;3.10;;;;;;;;;;5073218;28;20479;-57
2023/03/17 03:36:50;;;;;;;3.80;3.40;;;;;;;;;;5073937;28;20742;-57
2023/03/17 03:39:16;;;;;;;4.13;3.73;;;;;;;;;;5073990;28;20505;-57
2023/03/17 03:41:42;;;;;;;3.93;3.27;;;;;;;;;;5074072;28;20924;-57
2023/03/17 03:44:08;;;;;;;3.27;2.93;;;;;;;;;;5073997;28;20274;-57
2023/03/17 03:46:35;;;;;;;3.87;3.27;;;;;;;;;;5073792;28;20477;-57
2023/03/17 03:49:01;;;;;;;4.23;3.80;;;;;;;;;;5073734;28;20928;-57
2023/03/17 03:51:27;;;;;;;4.20;3.80;;;;;;;;;;5073730;28;20842;-57
2023/03/17 03:53:53;;;;;;;5.03;3.77;;;;;;;;;;5073697;28;20580;-57
2023/03/17 03:56:19;;;;;;;3.90;3.60;;;;;;;;;;5073662;28;20203;-57
2023/03/17 03:58:45;;;;;;;4.03;3.60;;;;;;;;;;5073742;28;20956;-57
2023/03/17 04:01:11;;;;;;;4.23;3.80;;;;;;;;;;5073541;28;20434;-57
2023/03/17 04:03:39;;;;;;;4.03;3.43;;;;;;;;;;5073686;28;20287;-57
2023/03/17 04:06:05;;;;;;;4.53;3.90;;;;;;;;;;5073395;28;20477;-57
2023/03/17 04:08:32;;;;;;;4.77;3.73;;;;;;;;;;5073488;28;20456;-57
2023/03/17 04:10:58;;;;;;;4.30;3.30;;;;;;;;;;5073195;28;20521;-57
2023/03/17 04:13:24;;;;;;;5.87;3.50;;;;;;;;;;5073609;28;20572;-57
2023/03/17 04:15:50;;;;;;;3.97;3.47;;;;;;;;;;5073286;28;20207;-57
2023/03/17 04:18:17;;;;;;;4.97;3.67;;;;;;;;;;5073282;28;20488;-57
2023/03/17 04:20:44;;;;;;;4.50;3.57;;;;;;;;;;5073163;28;20437;-57
2023/03/17 04:23:10;;;;;;;4.00;3.47;;;;;;;;;;5073191;28;20450;-57
2023/03/17 04:25:36;;;;;;;5.77;3.43;;;;;;;;;;5073221;28;20434;-57
2023/03/17 04:28:03;;;;;;;3.80;3.40;;;;;;;;;;5073217;28;20203;-57
2023/03/17 04:30:29;;;;;;;4.03;3.60;;;;;;;;;;5073096;28;20912;-57
2023/03/17 04:32:55;;;;;;;6.00;3.50;;;;;;;;;;5073045;28;20527;-57
2023/03/17 04:35:21;;;;;;;4.73;3.53;;;;;;;;;;5073114;28;20219;-57
2023/03/17 04:37:49;;;;;;;3.60;3.30;;;;;;;;;;5072843;28;20437;-58
2023/03/17 04:40:16;;;;;;;3.47;3.13;;;;;;;;;;5072809;28;20431;-58
2023/03/17 04:42:42;;;;;;;4.13;3.13;;;;;;;;;;5072615;28;20955;-58
2023/03/17 04:45:10;;;;;;;3.63;3.10;;;;;;;;;;5072614;28;20517;-58
2023/03/17 04:47:36;;;;;;;4.40;3.70;;;;;;;;;;5072858;28;20187;-58
2023/03/17 04:50:02;;;;;;;4.67;3.53;;;;;;;;;;5072459;28;20973;-58
2023/03/17 04:52:28;;;;;;;5.97;3.70;;;;;;;;;;5072564;28;20473;-58
2023/03/17 04:54:56;;;;;;;4.20;3.53;;;;;;;;;;5072565;28;20434;-58
2023/03/17 04:57:23;;;;;;;4.30;3.73;;;;;;;;;;5072521;28;20466;-58
2023/03/17 04:59:49;;;;;;;6.97;4.23;;;;;;;;;;5072477;28;20441;-58
2023/03/17 05:02:17;;;;;;;5.37;3.90;;;;;;;;;;5072271;28;20430;-58
2023/03/17 05:04:44;;;;;;;4.77;3.73;;;;;;;;;;5072364;28;20951;-58
2023/03/17 05:07:10;;;;;;;5.07;3.70;;;;;;;;;;5072264;28;20472;-58
2023/03/17 05:09:36;;;;;;;4.57;3.40;;;;;;;;;;5072322;28;20497;-58
2023/03/17 05:12:04;;;;;;;3.50;3.20;;;;;;;;;;5071909;28;20825;-58
2023/03/17 05:14:30;;;;;;;5.83;4.00;;;;;;;;;;5072110;28;20448;-56
2023/03/17 05:16:56;;;;;;;4.63;3.60;;;;;;;;;;5071946;28;20445;-57
2023/03/17 05:19:22;;;;;;;4.97;3.73;;;;;;;;;;5072387;28;20279;-56
2023/03/17 05:21:48;;;;;;;5.10;3.20;;;;;;;;;;5071981;28;20521;-59
2023/03/17 05:24:14;;;;;;;4.60;3.57;;;;;;;;;;5071932;28;20438;-59
2023/03/17 05:26:40;;;;;;;4.27;3.70;;;;;;;;;;5071972;28;20812;-58
2023/03/17 05:29:08;;;;;;;3.97;3.57;;;;;;;;;;5071878;28;20959;-58
2023/03/17 05:31:35;;;;;;;5.13;3.70;;;;;;;;;;5071829;28;20453;-58
2023/03/17 05:34:01;;;;;;;5.87;4.00;;;;;;;;;;5071514;28;20477;-56
2023/03/17 05:36:27;;;;;;;5.03;4.30;;;;;;;;;;5071850;28;20418;-57
2023/03/17 05:38:53;;;;;;;4.37;3.80;;;;;;;;;;5071718;28;20430;-58
2023/03/17 05:41:19;;;;;;;4.53;3.53;;;;;;;;;;5071525;28;20422;-58
2023/03/17 05:43:45;;;;;;;4.63;3.80;;;;;;;;;;5071592;28;20525;-57
2023/03/17 05:46:13;;;;;;;5.13;3.67;;;;;;;;;;5071360;28;20837;-57
2023/03/17 05:48:39;;;;;;;7.07;4.03;;;;;;;;;;5071716;28;20444;-57
2023/03/17 05:51:06;;;;;;;4.67;4.13;;;;;;;;;;5071467;28;20604;-57
2023/03/17 05:53:32;;;;;;;4.67;3.67;;;;;;;;;;5071643;28;20254;-58
2023/03/17 05:55:57;;;;;;;4.93;3.83;;;;;;;;;;5070693;28;20467;-58
2023/03/17 05:58:23;;;;;;;5.10;4.27;;;;;;;;;;5071679;28;20803;-59
2023/03/17 06:00:50;;;;;;;7.07;3.90;;;;;;;;;;5071529;28;20298;-58
2023/03/17 06:03:17;;;;;;;4.27;3.87;;;;;;;;;;5071301;28;20187;-57
2023/03/17 06:05:43;;;;;;;4.33;3.93;;;;;;;;;;5071423;28;20452;-58
2023/03/17 06:08:09;;;;;;;5.63;3.50;;;;;;;;;;5071413;28;21011;-58
2023/03/17 06:10:35;;;;;;;4.23;3.83;;;;;;;;;;5071294;28;20470;-58
2023/03/17 06:13:01;;;;;;;4.40;3.90;;;;;;;;;;5071049;28;20580;-58
2023/03/17 06:15:27;;;;;;;4.50;4.10;;;;;;;;;;5071190;28;20446;-58
2023/03/17 06:17:53;;;;;;;6.03;4.20;;;;;;;;;;5071152;28;20248;-58
2023/03/17 06:20:21;;;;;;;4.33;3.93;;;;;;;;;;5070991;28;20438;-57
2023/03/17 06:22:47;;;;;;;5.13;3.70;;;;;;;;;;5071099;28;20977;-57
2023/03/17 06:25:14;;;;;;;4.30;3.83;;;;;;;;;;5070969;28;20430;-57
2023/03/17 06:27:41;;;;;;;5.10;4.37;;;;;;;;;;5071242;28;20461;-57
2023/03/17 06:30:08;;;;;;;4.53;3.90;;;;;;;;;;5071075;28;20434;-59
2023/03/17 06:32:34;;;;;;;5.17;3.87;;;;;;;;;;5071000;28;20476;-58
2023/03/17 06:35:00;;;;;;;4.57;3.77;;;;;;;;;;5070828;28;20438;-58
2023/03/17 06:37:28;;;;;;;6.97;3.97;;;;;;;;;;5070925;28;20800;-59
2023/03/17 06:39:55;;;;;;;4.87;3.90;;;;;;;;;;5070921;28;20434;-58
2023/03/17 06:42:21;;;;;;;4.67;3.93;;;;;;;;;;5071009;28;20441;-57
2023/03/17 06:44:51;;;;;;;4.00;3.70;;;;;;;;;;5070701;28;20528;-57
2023/03/17 06:47:17;;;;;;;4.37;3.80;;;;;;;;;;5070765;28;20443;-58
2023/03/17 06:49:43;;;;;;;4.40;3.80;;;;;;;;;;5070876;28;20861;-58
2023/03/17 06:52:09;;;;;;;4.00;3.60;;;;;;;;;;5070841;28;20230;-58
2023/03/17 06:54:37;;;;;;;3.90;3.50;;;;;;;;;;5070990;28;20211;-59
2023/03/17 06:57:03;;;;;;;3.87;3.27;;;;;;;;;;5070774;28;20445;-58
2023/03/17 06:59:29;;;;;;;4.27;3.87;;;;;;;;;;5070936;28;20203;-58
2023/03/17 07:01:56;;;;;;;3.87;3.47;;;;;;;;;;5070891;28;20218;-59
2023/03/17 07:04:22;;;;;;;4.40;3.60;;;;;;;;;;5071070;28;20218;-59
2023/03/17 07:06:48;;;;;;;4.17;3.47;;;;;;;;;;5070775;28;20654;-59
2023/03/17 07:09:15;;;;;;;6.17;3.50;;;;;;;;;;5074325;28;20282;-59
2023/03/17 07:11:43;;;;;;;4.10;3.20;;;;;;;;;;5074676;28;20200;-60
2023/03/17 07:14:09;;;;;;;3.70;3.20;;;;;;;;;;5074418;28;20477;-58
2023/03/17 07:16:36;;;;;;;3.53;3.23;;;;;;;;;;5074452;28;20202;-59
2023/03/17 07:19:02;;;;;;;3.43;3.10;;;;;;;;;;5074232;28;20704;-59
2023/03/17 07:21:28;;;;;;;3.40;3.10;;;;;;;;;;5074557;28;20199;-60
2023/03/17 07:23:56;;;;;;;3.80;3.27;;;;;;;;;;5074178;28;20198;-60
2023/03/17 07:26:22;;;;;;;3.67;3.23;;;;;;;;;;5074382;28;20203;-56
2023/03/17 07:28:49;;;;;;;4.13;3.40;;;;;;;;;;5074131;28;20206;-57
2023/03/17 07:31:15;;;;;;;3.33;3.03;;;;;;;;;;5073854;28;20199;-57
2023/03/17 07:33:42;;;;;;;3.70;3.23;;;;;;;;;;5074030;28;20211;-59
2023/03/17 07:36:09;;;;;;;4.07;3.10;;;;;;;;;;5074138;28;20200;-56
2023/03/17 07:38:35;;;;;;;3.17;2.83;;;;;;;;;;5073956;28;20686;-56
2023/03/17 07:41:02;;;;;;;3.90;3.43;;;;;;;;;;5073972;28;20496;-56
2023/03/17 07:43:28;;;;;;;3.73;3.10;;;;;;;;;;5073889;28;20227;-56
2023/03/17 07:45:55;;;;;;;3.53;3.23;;;;;;;;;;5073841;28;20318;-56
2023/03/17 07:48:21;;;;;;;6.77;3.53;;;;;;;;;;5073825;28;20202;-57
2023/03/17 07:50:47;;;;;;;3.17;2.87;;;;;;;;;;5073829;28;20326;-56
2023/03/17 07:53:13;;;;;;;3.30;3.00;;;;;;;;;;5073415;28;20231;-57
2023/03/17 07:55:40;;;;;;;4.50;3.20;;;;;;;;;;5073774;28;20206;-57
2023/03/17 07:58:06;;;;;;;3.57;3.13;;;;;;;;;;5073669;28;20275;-57
2023/03/17 08:00:33;;;;;;;3.20;2.90;;;;;;;;;;5073609;28;20201;-57
2023/03/17 08:03:01;;;;;;;4.07;3.17;;;;;;;;;;5073718;28;20254;-56
2023/03/17 08:05:27;;;;;;;3.40;3.07;;;;;;;;;;5073306;28;20229;-56
2023/03/17 08:07:54;;;;;;;3.97;2.90;;;;;;;;;;5073728;28;20191;-56
2023/03/17 08:10:20;;;;;;;3.47;3.10;;;;;;;;;;5073268;28;20219;-56
2023/03/17 08:12:50;;;;;;;3.23;2.73;;;;;;;;;;5073300;28;20733;-55
2023/03/17 08:15:16;;;;;;;6.80;3.10;;;;;;;;;;5073240;28;20211;-56
2023/03/17 08:17:42;;;;;;;3.30;3.00;;;;;;;;;;5073126;28;20647;-58
2023/03/17 08:20:11;;;;;;;5.00;3.07;;;;;;;;;;5072673;28;20195;-58
2023/03/17 08:22:37;;;;;;;5.50;3.17;;;;;;;;;;5073481;28;20208;-58
2023/03/17 08:25:03;;;;;;;3.23;2.90;;;;;;;;;;5073003;28;20227;-59
2023/03/17 08:27:29;;;;;;;3.10;2.80;;;;;;;;;;5073246;28;20314;-65
2023/03/17 08:29:55;;;;;;;4.40;2.90;;;;;;;;;;5073042;28;20666;-64
2023/03/17 08:32:21;;;;;;;4.83;3.00;;;;;;;;;;5072856;28;20269;-65
2023/03/17 08:34:48;;;;;;;2.80;2.50;;;;;;;;;;5072978;28;20286;-61
2023/03/17 08:37:15;;;;;;;3.10;2.80;;;;;;;;;;5072890;28;20191;-63
2023/03/17 08:39:41;;;;;;;3.97;3.17;;;;;;;;;;5073128;28;20201;-59
2023/03/17 08:42:07;;;;;;;2.60;2.40;;;;;;;;;;5073040;28;20298;-59
2023/03/17 08:44:33;;;;;;;3.67;2.83;;;;;;;;;;5072862;28;20238;-58
2023/03/17 08:46:59;;;;;;;2.77;2.50;;;;;;;;;;5072716;28;20628;-59
2023/03/17 08:49:26;;;;;;;3.87;3.00;;;;;;;;;;5072741;28;20286;-59
2023/03/17 08:51:53;;;;;;;2.47;2.27;;;;;;;;;;5072974;28;20199;-59
2023/03/17 08:54:20;;;;;;;3.20;2.90;;;;;;;;;;5072613;28;20231;-59
2023/03/17 08:56:46;;;;;;;2.73;2.50;;;;;;;;;;5072789;28;20204;-59
2023/03/17 08:59:12;;;;;;;3.17;2.70;;;;;;;;;;5072777;28;20253;-60
2023/03/17 09:01:39;;;;;;;2.73;2.53;;;;;;;;;;5072960;28;20231;-59
2023/03/17 09:04:05;;;;;;;3.90;2.60;;;;;;;;;;5072494;28;20245;-59
2023/03/17 09:06:31;;;;;;;4.20;2.73;;;;;;;;;;5072717;28;20209;-59
2023/03/17 09:08:57;;;;;;;2.93;2.63;;;;;;;;;;5072515;28;20290;-59
2023/03/17 09:11:25;;;;;;;3.30;2.40;;;;;;;;;;5072780;28;20222;-59
2023/03/17 09:13:51;;;;;;;3.07;2.63;;;;;;;;;;5072568;28;20314;-60
2023/03/17 09:16:18;;;;;;;3.83;2.50;;;;;;;;;;5072505;28;20195;-59
2023/03/17 09:18:45;;;;;;;3.03;2.73;;;;;;;;;;5072080;28;20187;-59
2023/03/17 09:21:11;;;;;;;3.43;2.40;;;;;;;;;;5072003;28;20204;-60
2023/03/17 09:23:37;;;;;;;3.03;2.73;;;;;;;;;;5072214;28;20191;-59
2023/03/17 09:26:03;;;;;;;2.57;2.33;;;;;;;;;;5071953;28;20290;-60
2023/03/17 09:28:30;;;;;;;3.00;2.50;;;;;;;;;;5071824;28;20613;-58
2023/03/17 09:30:57;;;;;;;3.30;2.60;;;;;;;;;;5071070;28;20203;-58
2023/03/17 09:33:23;;;;;;;3.13;2.53;;;;;;;;;;5071878;28;20314;-58
2023/03/17 09:35:51;;;;;;;3.00;2.70;;;;;;;;;;5071735;28;20690;-58
2023/03/17 09:38:17;;;;;;;4.87;2.80;;;;;;;;;;5071573;28;20727;-58
2023/03/17 09:40:44;;;;;;;5.27;3.00;;;;;;;;;;5071762;28;20196;-58
2023/03/17 09:43:16;;;;;;;4.37;2.77;;;;;;;;;;5071514;28;20750;-58
2023/03/17 09:45:44;;;;;;;3.57;2.50;;;;;;;;;;5071544;28;20788;-58
2023/03/17 09:48:28;;;;;;;2.73;2.53;;;;;;;;;;5071497;28;20253;-58
2023/03/17 09:50:55;;;;;;;7.53;2.70;;;;;;;;;;5051660;28;20208;-59
2023/03/17 09:53:23;;;;;;;3.27;2.70;;;;;;;;;;5051524;28;20237;-59
2023/03/17 09:55:52;;;;;;;4.27;2.80;;;;;;;;;;5051655;28;20197;-59
2023/03/17 09:58:20;;;;;;;2.67;2.47;;;;;;;;;;5051408;28;20215;-60
2023/03/17 10:00:48;;;;;;;3.00;2.77;;;;;;;;;;5051486;28;20271;-59
2023/03/17 10:03:14;;;;;;;2.83;2.60;;;;;;;;;;5051455;28;20216;-59
2023/03/17 10:05:40;;;;;;;2.97;2.63;;;;;;;;;;5051525;28;20200;-59
2023/03/17 10:08:12;;;;;;;3.87;2.77;;;;;;;;;;5051530;28;20664;-59
2023/03/17 10:10:41;;;;;;;3.10;2.63;;;;;;;;;;5051594;28;20612;-59
2023/03/17 10:13:13;;;;;;;2.83;2.50;;;;;;;;;;5051464;28;20226;-58
2023/03/17 10:15:44;;;;;;;2.60;2.40;;;;;;;;;;5051411;28;20295;-59
2023/03/17 10:18:13;;;;;;;3.60;2.50;;;;;;;;;;5051427;28;20206;-60
2023/03/17 10:20:44;;;;;;;5.40;2.50;;;;;;;;;;5051511;28;20616;-60
2023/03/17 10:23:12;;;;;;;2.53;2.33;;;;;;;;;;5051370;28;20579;-58
2023/03/17 10:25:39;;;;;;;3.23;2.37;;;;;;;;;;5051397;28;20204;-58
2023/03/17 10:28:07;;;;;;;3.37;2.53;;;;;;;;;;5051219;28;20234;-58
2023/03/17 10:30:34;;;;;;;3.70;2.50;;;;;;;;;;5051326;28;20569;-58
2023/03/17 10:33:01;;;;;;;3.33;2.40;;;;;;;;;;5050715;28;20703;-59
2023/03/17 10:35:29;;;;;;;2.93;2.40;;;;;;;;;;5059031;28;20208;-67
2023/03/17 10:37:55;;;;;;;2.93;2.27;;;;;;;;;;5071448;28;20252;-63
2023/03/17 10:40:23;;;;;;;4.00;2.60;;;;;;;;;;5071134;28;20604;-61
2023/03/17 10:42:52;;;;;;;2.50;2.30;;;;;;;;;;5072731;28;20648;-62
2023/03/17 10:45:23;;;;;;;3.27;2.43;;;;;;;;;;5074713;28;20606;-63
2023/03/17 10:47:50;;;;;;;4.07;2.30;;;;;;;;;;5075323;28;20245;-62
2023/03/17 10:50:21;;;;;;;3.00;2.47;;;;;;;;;;5074715;28;20200;-62
2023/03/17 10:52:51;;;;;;;3.03;2.73;;;;;;;;;;5058368;28;20223;-62
2023/03/17 10:55:20;;;;;;;4.23;2.77;;;;;;;;;;5054729;28;20228;-61
2023/03/17 10:57:51;;;;;;;3.73;2.77;;;;;;;;;;5052750;28;20197;-61
2023/03/17 11:00:19;;;;;;;5.53;2.83;;;;;;;;;;5053260;28;20206;-61
2023/03/17 11:02:47;;;;;;;3.10;2.80;;;;;;;;;;5054862;28;20296;-61
2023/03/17 11:05:18;;;;;;;2.70;2.50;;;;;;;;;;5054871;28;20197;-61
2023/03/17 11:07:44;;;;;;;3.20;2.90;;;;;;;;;;5054857;28;20192;-62
2023/03/17 11:10:17;;;;;;;2.93;2.50;;;;;;;;;;5054741;28;20250;-62
2023/03/17 11:12:43;;;;;;;3.37;2.60;;;;;;;;;;5054841;28;20203;-65
2023/03/17 11:15:11;;;;;;;5.03;2.97;;;;;;;;;;5051709;28;20291;-67
2023/03/17 11:17:45;;;;;;;3.90;2.80;;;;;;;;;;5070021;28;20199;-66
2023/03/17 11:20:20;;;;;;;4.30;3.00;;;;;;;;;;5074514;28;20242;-61
2023/03/17 11:22:50;;;;;;;4.20;2.73;;;;;;;;;;5074477;28;20192;-66
2023/03/17 11:25:19;;;;;;;3.07;2.77;;;;;;;;;;5074349;28;20203;-65
2023/03/17 11:27:46;;;;;;;2.80;2.50;;;;;;;;;;5073987;28;20235;-67
2023/03/17 11:30:19;;;;;;;2.70;2.40;;;;;;;;;;5074200;28;20725;-66
2023/03/17 11:32:50;;;;;;;4.60;2.80;;;;;;;;;;5074133;28;20202;-66
2023/03/17 11:35:23;;;;;;;6.00;3.10;;;;;;;;;;5074186;28;20196;-64
2023/03/17 11:37:57;;;;;;;3.30;2.40;;;;;;;;;;5074157;28;20196;-67
2023/03/17 11:40:30;;;;;;;3.50;2.70;;;;;;;;;;5070158;28;20206;-62
2023/03/17 11:43:02;;;;;;;3.67;3.10;;;;;;;;;;5074343;28;20604;-62
2023/03/17 11:45:32;;;;;;;3.57;2.90;;;;;;;;;;5074138;28;20228;-63
2023/03/17 11:48:06;;;;;;;4.13;2.70;;;;;;;;;;5074090;28;20700;-63
2023/03/17 11:50:36;;;;;;;4.07;3.23;;;;;;;;;;5074173;28;20196;-63
2023/03/17 11:53:09;;;;;;;3.30;2.70;;;;;;;;;;5073862;28;20223;-63
2023/03/17 11:55:41;;;;;;;3.40;2.80;;;;;;;;;;5073195;28;20264;-63
2023/03/17 11:58:12;;;;;;;3.27;2.70;;;;;;;;;;5074015;28;20211;-62
2023/03/17 12:00:41;;;;;;;3.47;2.63;;;;;;;;;;5074227;28;20204;-62
2023/03/17 12:03:11;;;;;;;2.60;2.37;;;;;;;;;;5073882;28;20203;-62
2023/03/17 12:05:38;;;;;;;5.10;2.73;;;;;;;;;;5073994;28;20570;-62
2023/03/17 12:08:11;;;;;;;2.83;2.40;;;;;;;;;;5073617;28;20253;-62
2023/03/17 12:10:41;;;;;;;3.57;3.00;;;;;;;;;;5074019;28;20203;-62
2023/03/17 12:13:10;;;;;;;3.07;2.40;;;;;;;;;;5073687;28;20558;-63
2023/03/17 12:15:39;;;;;;;3.00;2.47;;;;;;;;;;5073812;28;20610;-63
2023/03/17 12:18:11;;;;;;;4.27;2.70;;;;;;;;;;5073391;28;20206;-62
2023/03/17 12:20:41;;;;;;;4.23;2.50;;;;;;;;;;5073718;28;20208;-62
2023/03/17 12:23:11;;;;;;;3.27;2.97;;;;;;;;;;5073538;28;20188;-62
2023/03/17 12:25:42;;;;;;;7.40;3.57;;;;;;;;;;5073630;28;20208;-63
2023/03/17 12:28:14;;;;;;;3.87;3.00;;;;;;;;;;5073439;28;20282;-62
2023/03/17 12:30:44;;;;;;;3.23;2.70;;;;;;;;;;5073474;28;20195;-62
2023/03/17 12:33:15;;;;;;;2.60;2.40;;;;;;;;;;5073163;28;20262;-64
2023/03/17 12:35:42;;;;;;;4.00;2.80;;;;;;;;;;5073529;28;20269;-63
2023/03/17 12:38:09;;;;;;;3.03;2.40;;;;;;;;;;5073217;28;20218;-62
2023/03/17 12:40:38;;;;;;;4.23;2.60;;;;;;;;;;5073249;28;20200;-63
2023/03/17 12:43:35;;;;;;;3.90;2.40;;;;;;;;;;5072953;28;20216;-61
2023/03/17 12:46:08;;;;;;;2.90;2.60;;;;;;;;;;5072968;28;20266;-62
2023/03/17 12:48:44;;;;;;;3.13;2.30;;;;;;;;;;5073094;28;20202;-62
2023/03/17 12:51:28;;;;;;;5.23;2.40;;;;;;;;;;5072919;28;20194;-63
2023/03/17 12:53:54;;;;;;;5.53;2.63;;;;;;;;;;5072885;28;20685;-62
2023/03/17 12:56:22;;;;;;;4.80;2.70;;;;;;;;;;5072760;28;20561;-63
2023/03/17 12:58:50;;;;;;;3.57;2.53;;;;;;;;;;5072752;28;20206;-62
2023/03/17 13:01:21;;;;;;;3.37;2.63;;;;;;;;;;5072531;28;20904;-62
2023/03/17 13:04:02;;;;;;;4.20;2.30;;;;;;;;;;5072695;28;20191;-62
2023/03/17 13:06:29;;;;;;;3.53;2.17;;;;;;;;;;5072392;28;20200;-62
2023/03/17 13:08:56;;;;;;;3.87;2.37;;;;;;;;;;5072666;28;20196;-61
2023/03/17 13:11:26;;;;;;;3.10;2.20;;;;;;;;;;5072691;28;20200;-62
2023/03/17 13:14:07;;;;;;;2.77;2.43;;;;;;;;;;5072649;28;20255;-61
2023/03/17 13:16:34;;;;;;;4.80;2.40;;;;;;;;;;5072389;28;20199;-62
2023/03/17 13:19:06;;;;;;;4.07;2.50;;;;;;;;;;5072229;28;20838;-62
2023/03/17 13:21:33;;;;;;;3.03;2.73;;;;;;;;;;5072467;28;20257;-62
2023/03/17 13:24:19;;;;;;;3.47;2.50;;;;;;;;;;5072173;28;20657;-62
2023/03/17 13:27:00;;;;;;;3.17;2.60;;;;;;;;;;5072223;28;20368;-62
2023/03/17 13:29:39;;;;;;;5.63;2.70;;;;;;;;;;5072118;28;20217;-62
2023/03/17 13:32:29;;;;;;;2.87;2.47;;;;;;;;;;5072002;28;20231;-62
2023/03/17 13:35:15;;;;;;;3.20;2.50;;;;;;;;;;5072096;28;20227;-62
2023/03/17 13:37:48;;;;;;;3.57;2.40;;;;;;;;;;5072107;28;20206;-62
2023/03/17 13:40:17;;;;;;;3.57;2.80;;;;;;;;;;5071729;28;20288;-62
2023/03/17 13:42:52;;;;;;;3.07;2.40;;;;;;;;;;5071790;28;20227;-62
2023/03/17 13:45:23;;;;;;;3.73;2.83;;;;;;;;;;5071550;28;20633;-61
2023/03/17 13:47:51;;;;;;;3.47;2.93;;;;;;;;;;5071725;28;20673;-63
2023/03/17 13:50:21;;;;;;;3.20;2.50;;;;;;;;;;5071749;28;20214;-63
2023/03/17 13:52:49;;;;;;;3.03;2.50;;;;;;;;;;5071814;28;20209;-63
2023/03/17 13:55:33;;;;;;;2.63;2.40;;;;;;;;;;5071721;28;20261;-63
2023/03/17 13:58:14;;;;;;;3.67;2.50;;;;;;;;;;5071783;28;20200;-62
2023/03/17 14:00:44;;;;;;;3.73;2.47;;;;;;;;;;5071859;28;20203;-63
2023/03/17 14:03:11;;;;;;;3.00;2.70;;;;;;;;;;5071748;28;20709;-63
2023/03/17 14:05:39;;;;;;;3.20;2.80;;;;;;;;;;5071868;28;20253;-63
2023/03/17 14:08:07;;;;;;;5.40;3.60;;;;;;;;;;5071624;28;20665;-63
2023/03/17 14:10:34;;;;;;;4.07;3.27;;;;;;;;;;5071616;28;20199;-63
2023/03/17 14:13:02;;;;;;;6.23;3.27;;;;;;;;;;5071533;28;20681;-63
2023/03/17 14:15:31;;;;;;;3.33;2.93;;;;;;;;;;5071496;28;20562;-63
2023/03/17 14:18:02;;;;;;;5.53;3.17;;;;;;;;;;5071040;28;20199;-63
2023/03/17 14:20:28;;;;;;;4.20;3.60;;;;;;;;;;5071546;28;20555;-63
2023/03/17 14:22:55;;;;;;;3.70;3.30;;;;;;;;;;5071740;28;20253;-63
2023/03/17 14:25:23;;;;;;;5.33;3.77;;;;;;;;;;5071456;28;20212;-63
2023/03/17 14:27:51;;;;;;;4.30;3.30;;;;;;;;;;5071567;28;20569;-63
2023/03/17 14:30:19;;;;;;;4.00;3.60;;;;;;;;;;5071353;28;20202;-63
2023/03/17 14:32:46;;;;;;;5.80;3.47;;;;;;;;;;5071506;28;20249;-63
2023/03/17 14:35:14;;;;;;;4.93;3.87;;;;;;;;;;5071308;28;20199;-63
2023/03/17 14:37:40;;;;;;;3.43;3.13;;;;;;;;;;5071441;28;20281;-63
2023/03/17 14:40:18;;;;;;;4.40;3.27;;;;;;;;;;5071198;28;20677;-63
2023/03/17 14:42:44;;;;;;;4.90;3.97;;;;;;;;;;5071213;28;20247;-63
2023/03/17 14:45:18;;;;;;;5.97;4.40;;;;;;;;;;5071255;28;20293;-63
2023/03/17 14:47:44;;;;;;;5.37;4.30;;;;;;;;;;5071087;28;20210;-63
2023/03/17 14:50:15;;;;;;;5.97;4.17;;;;;;;;;;5071068;28;20191;-64